createdAt,value
2022-08-15T00:04:10.359Z,9.52
2022-08-15T00:09:54.855Z,11.13
2022-08-15T00:14:58.887Z,9.43
2022-08-15T00:20:03.006Z,10.10
2022-08-15T00:25:08.670Z,9.82
2022-08-15T00:30:24.224Z,9.48
2022-08-15T00:35:40.240Z,9.40
2022-08-15T00:41:06.498Z,9.63
2022-08-15T00:46:21.478Z,8.15
2022-08-15T00:51:32.191Z,7.57
2022-08-15T00:56:44.483Z,6.65
2022-08-15T01:02:01.413Z,6.60
2022-08-15T01:07:06.557Z,5.55
2022-08-15T01:12:21.019Z,6.30
2022-08-15T01:17:30.647Z,5.40
2022-08-15T01:22:54.252Z,4.78
2022-08-15T01:28:03.943Z,4.93
2022-08-15T01:33:09.698Z,5.32
2022-08-15T01:38:38.407Z,5.73
2022-08-15T01:43:54.765Z,4.65
2022-08-15T01:49:04.251Z,4.85
2022-08-15T01:54:10.844Z,4.28
2022-08-15T01:59:20.448Z,4.90
2022-08-15T02:04:30.663Z,4.38
2022-08-15T02:09:38.754Z,3.97
2022-08-15T02:15:03.522Z,5.03
2022-08-15T02:20:23.417Z,4.93
2022-08-15T02:25:37.016Z,4.13
2022-08-15T02:30:44.140Z,4.25
2022-08-15T02:35:48.766Z,3.95
2022-08-15T02:40:58.831Z,3.80
2022-08-15T02:46:28.578Z,4.60
2022-08-15T02:51:46.574Z,4.05
2022-08-15T02:56:58.946Z,4.20
2022-08-15T03:02:04.084Z,4.05
2022-08-15T03:07:08.347Z,4.25
2022-08-15T03:12:26.095Z,3.80
2022-08-15T03:17:42.082Z,3.55
2022-08-15T03:22:50.144Z,3.60
2022-08-15T03:28:00.187Z,3.20
2022-08-15T03:33:10.319Z,4.38
2022-08-15T03:38:51.848Z,3.67
2022-08-15T03:43:48.569Z,4.15
2022-08-15T03:49:02.541Z,4.10
2022-08-15T03:54:24.869Z,4.43
2022-08-15T03:59:40.011Z,4.35
2022-08-15T04:04:51.618Z,4.20
2022-08-15T04:10:00.341Z,3.42
2022-08-15T04:15:15.164Z,4.35
2022-08-15T04:20:31.133Z,4.65
2022-08-15T04:25:54.716Z,4.03
2022-08-15T04:31:06.729Z,4.57
2022-08-15T04:36:19.073Z,4.15
2022-08-15T04:41:33.784Z,4.43
2022-08-15T04:46:42.425Z,4.57
2022-08-15T04:51:48.136Z,4.20
2022-08-15T04:56:58.866Z,3.72
2022-08-15T05:02:50.091Z,4.07
2022-08-15T05:07:30.285Z,4.05
2022-08-15T05:12:38.178Z,4.50
2022-08-15T05:17:55.881Z,4.78
2022-08-15T05:23:07.960Z,6.90
2022-08-15T05:28:29.568Z,5.13
2022-08-15T05:39:07.912Z,4.25
2022-08-15T05:44:39.087Z,4.28
2022-08-15T05:49:56.872Z,5.65
2022-08-15T05:55:24.467Z,4.80
2022-08-15T06:00:31.685Z,4.13
2022-08-15T06:05:40.850Z,4.18
2022-08-15T06:10:57.173Z,3.30
2022-08-15T06:16:45.536Z,4.32
2022-08-15T06:21:46.813Z,5.18
2022-08-15T06:27:00.133Z,4.28
2022-08-15T06:32:23.036Z,4.18
2022-08-15T06:37:35.688Z,4.57
2022-08-15T06:43:04.882Z,4.88
2022-08-15T06:48:59.234Z,3.95
2022-08-15T06:54:36.855Z,5.25
2022-08-15T06:59:56.535Z,5.25
2022-08-15T07:05:15.701Z,6.38
2022-08-15T07:10:29.523Z,4.55
2022-08-15T07:15:54.896Z,4.35
2022-08-15T07:21:11.043Z,4.70
2022-08-15T07:26:19.971Z,6.18
2022-08-15T07:31:34.135Z,5.03
2022-08-15T07:37:02.001Z,10.13
2022-08-15T07:47:56.896Z,4.80
2022-08-15T07:53:06.390Z,4.82
2022-08-15T07:58:23.831Z,4.80
2022-08-15T08:03:37.292Z,5.18
2022-08-15T08:08:50.266Z,5.20
2022-08-15T08:14:37.146Z,5.57
2022-08-15T08:19:43.300Z,5.40
2022-08-15T08:24:57.362Z,5.03
2022-08-15T08:30:42.475Z,4.70
2022-08-15T08:35:45.355Z,5.78
2022-08-15T08:41:22.154Z,5.55
2022-08-15T08:52:38.489Z,5.07
2022-08-15T08:57:52.832Z,4.75
2022-08-15T09:03:00.813Z,5.85
2022-08-15T09:08:29.979Z,6.03
2022-08-15T09:13:48.103Z,6.15
2022-08-15T09:19:41.820Z,5.05
2022-08-15T09:25:06.726Z,5.05
2022-08-15T09:30:45.694Z,5.30
2022-08-15T09:35:51.918Z,4.90
2022-08-15T09:41:30.792Z,5.13
2022-08-15T09:46:53.113Z,5.25
2022-08-15T09:52:11.329Z,5.40
2022-08-15T09:57:41.606Z,4.47
2022-08-15T10:02:48.134Z,5.15
2022-08-15T10:07:58.059Z,3.60
2022-08-15T10:13:20.816Z,3.47
2022-08-15T10:19:03.974Z,4.18
2022-08-15T10:24:29.290Z,4.28
2022-08-15T10:29:36.997Z,3.90
2022-08-15T10:34:57.328Z,3.92
2022-08-15T10:40:42.329Z,3.83
2022-08-15T10:45:56.179Z,4.40
2022-08-15T10:51:04.928Z,4.50
2022-08-15T10:56:59.892Z,4.80
2022-08-15T11:01:40.341Z,4.65
2022-08-15T11:06:56.185Z,4.65
2022-08-15T11:12:09.997Z,4.03
2022-08-15T11:17:23.841Z,4.22
2022-08-15T11:22:34.145Z,4.57
2022-08-15T11:27:37.831Z,3.50
2022-08-15T11:32:42.859Z,4.00
2022-08-15T11:37:54.141Z,4.18
2022-08-15T11:43:02.564Z,4.40
2022-08-15T11:48:22.758Z,4.65
2022-08-15T11:54:04.294Z,4.20
2022-08-15T11:59:15.018Z,4.13
2022-08-15T12:10:30.622Z,4.00
2022-08-15T12:13:13.092Z,4.65
2022-08-15T12:15:46.051Z,4.03
2022-08-15T12:21:09.014Z,4.18
2022-08-15T12:26:37.622Z,5.22
2022-08-15T12:31:44.166Z,4.32
2022-08-15T12:37:05.701Z,4.32
2022-08-15T12:42:49.053Z,5.13
2022-08-15T12:48:06.058Z,4.90
2022-08-15T12:53:15.141Z,4.38
2022-08-15T12:58:25.446Z,5.40
2022-08-15T13:04:00.236Z,5.45
2022-08-15T13:08:59.383Z,4.93
2022-08-15T13:14:03.920Z,5.60
2022-08-15T13:19:16.190Z,5.50
2022-08-15T13:24:22.368Z,5.75
2022-08-15T13:29:54.343Z,5.30
2022-08-15T13:34:59.562Z,5.40
2022-08-15T13:40:09.210Z,5.60
2022-08-15T13:45:57.932Z,4.95
2022-08-15T13:50:47.845Z,5.25
2022-08-15T13:55:53.342Z,5.38
2022-08-15T14:01:04.519Z,5.90
2022-08-15T14:06:09.387Z,5.80
2022-08-15T14:11:17.393Z,5.15
2022-08-15T14:16:59.767Z,5.70
2022-08-15T14:22:02.459Z,5.93
2022-08-15T14:27:26.952Z,5.38
2022-08-15T14:32:48.036Z,7.65
2022-08-15T14:37:58.253Z,7.80
2022-08-15T14:43:06.182Z,7.80
2022-08-15T14:48:23.248Z,8.80
2022-08-15T14:53:30.317Z,8.20
2022-08-15T14:58:39.659Z,8.48
2022-08-15T15:03:56.984Z,7.75
2022-08-15T15:09:01.628Z,9.30
2022-08-15T15:19:12.176Z,6.95
2022-08-15T15:24:15.936Z,7.47
2022-08-15T15:29:21.789Z,7.03
2022-08-15T15:34:30.826Z,7.00
2022-08-15T15:39:45.703Z,6.28
2022-08-15T15:44:52.716Z,6.10
2022-08-15T15:49:58.805Z,6.20
2022-08-15T15:55:05.559Z,6.63
2022-08-15T16:00:24.906Z,6.10
2022-08-15T16:06:03.856Z,6.35
2022-08-15T16:11:06.592Z,6.53
2022-08-15T16:16:19.231Z,6.30
2022-08-15T16:21:29.026Z,6.38
2022-08-15T16:26:38.189Z,6.18
2022-08-15T16:37:21.117Z,6.38
2022-08-15T16:42:40.899Z,7.13
2022-08-15T16:48:10.494Z,6.78
2022-08-15T16:53:22.839Z,7.07
2022-08-15T16:58:51.237Z,6.70
2022-08-15T17:04:13.805Z,7.35
2022-08-15T17:09:54.578Z,7.20
2022-08-15T17:15:00.302Z,7.30
2022-08-15T17:20:20.989Z,7.63
2022-08-15T17:25:36.720Z,6.95
2022-08-15T17:30:57.014Z,7.50
2022-08-15T17:36:04.562Z,7.32
2022-08-15T17:41:13.269Z,6.90
2022-08-15T17:46:28.939Z,8.05
2022-08-15T17:51:39.519Z,8.20
2022-08-15T17:56:49.138Z,7.75
2022-08-15T18:01:56.385Z,8.75
2022-08-15T18:07:02.287Z,7.95
2022-08-15T18:12:16.502Z,8.30
2022-08-15T18:17:24.730Z,7.73
2022-08-15T18:22:31.371Z,8.10
2022-08-15T18:27:55.067Z,8.02
2022-08-15T18:33:04.027Z,8.55
2022-08-15T18:38:37.550Z,8.85
2022-08-15T18:43:47.683Z,9.13
2022-08-15T18:54:48.329Z,11.18
2022-08-15T19:00:18.030Z,8.30
2022-08-15T19:05:32.005Z,9.00
2022-08-15T19:10:53.381Z,7.55
2022-08-15T19:16:04.540Z,9.52
2022-08-15T19:21:12.147Z,8.25
2022-08-15T19:26:40.751Z,10.60
2022-08-15T19:31:52.910Z,7.32
2022-08-15T19:37:11.903Z,7.70
2022-08-15T19:42:32.043Z,9.45
2022-08-15T19:47:45.470Z,7.43
2022-08-15T19:53:05.087Z,7.47
2022-08-15T19:58:30.847Z,8.32
2022-08-15T20:03:44.582Z,8.23
2022-08-15T20:08:59.299Z,7.47
2022-08-15T20:14:47.014Z,7.47
2022-08-15T20:20:01.618Z,7.97
2022-08-15T20:25:16.206Z,7.93
2022-08-15T20:30:36.569Z,7.65
2022-08-15T20:35:45.668Z,8.85
2022-08-15T20:41:04.794Z,8.52
2022-08-15T20:46:28.156Z,9.48
2022-08-15T20:52:01.050Z,9.18
2022-08-15T20:57:16.232Z,10.85
2022-08-15T21:02:42.656Z,8.60
2022-08-15T21:08:22.760Z,9.13
2022-08-15T21:13:47.475Z,8.10
2022-08-15T21:19:05.940Z,9.57
2022-08-15T21:24:24.463Z,10.30
2022-08-15T21:29:33.198Z,9.52
2022-08-15T21:34:40.440Z,9.10
2022-08-15T21:39:57.018Z,9.27
2022-08-15T21:45:33.795Z,9.35
2022-08-15T21:50:48.825Z,9.68
2022-08-15T22:01:16.524Z,9.10
2022-08-15T22:06:26.938Z,8.70
2022-08-15T22:11:40.824Z,10.10
2022-08-15T22:16:45.279Z,10.02
2022-08-15T22:21:51.340Z,10.18
2022-08-15T22:26:55.233Z,11.13
2022-08-15T22:32:11.674Z,8.82
2022-08-15T22:37:34.160Z,8.88
2022-08-15T22:42:43.013Z,10.68
2022-08-15T22:47:51.637Z,11.75
2022-08-15T22:53:00.677Z,11.75
2022-08-15T22:58:10.285Z,11.77
2022-08-15T23:03:22.623Z,11.43
2022-08-15T23:08:33.858Z,10.60
2022-08-15T23:13:59.315Z,11.32
2022-08-15T23:19:15.500Z,11.68
2022-08-15T23:24:37.011Z,11.73
2022-08-15T23:29:44.482Z,11.95
2022-08-15T23:34:52.055Z,17.67
2022-08-15T23:40:03.923Z,12.10
2022-08-15T23:45:13.865Z,14.18
2022-08-15T23:50:18.187Z,11.55
2022-08-15T23:55:28.706Z,12.40
